sensor_id;sensor_type;location;lat;lon;timestamp;P1;durP1;ratioP1;P2;durP2;ratioP2
15629;SDS011;7914;50.842;0.166;2022-09-03T00:02:40;52.53;;;47.30;;
15629;SDS011;7914;50.842;0.166;2022-09-03T00:10:41;50.57;;;45.53;;
15629;SDS011;7914;50.842;0.166;2022-09-03T00:13:21;47.83;;;43.13;;
15629;SDS011;7914;50.842;0.166;2022-09-03T00:15:51;48.57;;;43.67;;
15629;SDS011;7914;50.842;0.166;2022-09-03T00:18:20;50.43;;;45.53;;
15629;SDS011;7914;50.842;0.166;2022-09-03T00:20:57;55.43;;;49.57;;
15629;SDS011;7914;50.842;0.166;2022-09-03T00:23:32;50.40;;;45.23;;
15629;SDS011;7914;50.842;0.166;2022-09-03T00:28:40;49.87;;;44.97;;
15629;SDS011;7914;50.842;0.166;2022-09-03T00:31:12;50.40;;;45.23;;
15629;SDS011;7914;50.842;0.166;2022-09-03T00:33:43;48.07;;;42.83;;
15629;SDS011;7914;50.842;0.166;2022-09-03T00:36:19;45.63;;;40.77;;
15629;SDS011;7914;50.842;0.166;2022-09-03T00:38:49;44.83;;;40.23;;
15629;SDS011;7914;50.842;0.166;2022-09-03T00:46:46;50.80;;;45.60;;
15629;SDS011;7914;50.842;0.166;2022-09-03T00:49:20;51.67;;;46.30;;
15629;SDS011;7914;50.842;0.166;2022-09-03T00:52:12;52.33;;;46.97;;
15629;SDS011;7914;50.842;0.166;2022-09-03T01:00:33;48.57;;;43.30;;
15629;SDS011;7914;50.842;0.166;2022-09-03T01:03:06;50.40;;;44.90;;
15629;SDS011;7914;50.842;0.166;2022-09-03T01:11:21;47.03;;;42.10;;
15629;SDS011;7914;50.842;0.166;2022-09-03T01:38:23;56.37;;;48.70;;
15629;SDS011;7914;50.842;0.166;2022-09-03T01:50:04;49.33;;;44.10;;
15629;SDS011;7914;50.842;0.166;2022-09-03T01:58:15;48.13;;;41.77;;
15629;SDS011;7914;50.842;0.166;2022-09-03T02:00:42;45.10;;;40.33;;
15629;SDS011;7914;50.842;0.166;2022-09-03T02:03:10;46.43;;;41.43;;
15629;SDS011;7914;50.842;0.166;2022-09-03T02:05:37;46.77;;;41.07;;
15629;SDS011;7914;50.842;0.166;2022-09-03T02:08:06;49.07;;;43.83;;
15629;SDS011;7914;50.842;0.166;2022-09-03T02:10:44;48.47;;;43.57;;
15629;SDS011;7914;50.842;0.166;2022-09-03T02:15:51;50.53;;;43.70;;
15629;SDS011;7914;50.842;0.166;2022-09-03T02:18:18;48.63;;;43.40;;
15629;SDS011;7914;50.842;0.166;2022-09-03T02:20:47;48.60;;;43.50;;
15629;SDS011;7914;50.842;0.166;2022-09-03T02:23:14;46.77;;;41.70;;
15629;SDS011;7914;50.842;0.166;2022-09-03T02:25:42;48.47;;;43.27;;
15629;SDS011;7914;50.842;0.166;2022-09-03T02:28:12;49.70;;;44.40;;
15629;SDS011;7914;50.842;0.166;2022-09-03T02:30:39;54.73;;;47.60;;
15629;SDS011;7914;50.842;0.166;2022-09-03T02:33:05;57.07;;;50.90;;
15629;SDS011;7914;50.842;0.166;2022-09-03T02:35:31;59.27;;;51.53;;
15629;SDS011;7914;50.842;0.166;2022-09-03T02:38:07;62.77;;;51.13;;
15629;SDS011;7914;50.842;0.166;2022-09-03T02:40:41;59.17;;;52.43;;
15629;SDS011;7914;50.842;0.166;2022-09-03T02:43:07;63.73;;;56.73;;
15629;SDS011;7914;50.842;0.166;2022-09-03T02:45:47;63.23;;;52.93;;
15629;SDS011;7914;50.842;0.166;2022-09-03T02:48:16;57.80;;;51.57;;
15629;SDS011;7914;50.842;0.166;2022-09-03T02:50:46;64.00;;;54.63;;
15629;SDS011;7914;50.842;0.166;2022-09-03T02:53:12;59.73;;;52.37;;
15629;SDS011;7914;50.842;0.166;2022-09-03T02:55:38;58.57;;;52.17;;
15629;SDS011;7914;50.842;0.166;2022-09-03T02:58:03;61.57;;;53.83;;
15629;SDS011;7914;50.842;0.166;2022-09-03T03:00:33;60.00;;;52.87;;
15629;SDS011;7914;50.842;0.166;2022-09-03T03:03:00;55.53;;;49.60;;
15629;SDS011;7914;50.842;0.166;2022-09-03T03:08:09;54.47;;;48.13;;
15629;SDS011;7914;50.842;0.166;2022-09-03T03:10:38;56.20;;;50.20;;
15629;SDS011;7914;50.842;0.166;2022-09-03T03:13:10;56.17;;;50.07;;
15629;SDS011;7914;50.842;0.166;2022-09-03T03:15:36;56.53;;;50.20;;
15629;SDS011;7914;50.842;0.166;2022-09-03T03:18:02;55.63;;;47.90;;
15629;SDS011;7914;50.842;0.166;2022-09-03T03:20:28;56.40;;;49.67;;
15629;SDS011;7914;50.842;0.166;2022-09-03T03:22:54;54.97;;;48.97;;
15629;SDS011;7914;50.842;0.166;2022-09-03T03:25:27;54.67;;;48.93;;
15629;SDS011;7914;50.842;0.166;2022-09-03T03:27:56;52.07;;;47.07;;
15629;SDS011;7914;50.842;0.166;2022-09-03T03:30:21;51.77;;;46.77;;
15629;SDS011;7914;50.842;0.166;2022-09-03T03:32:47;51.37;;;46.47;;
15629;SDS011;7914;50.842;0.166;2022-09-03T03:35:13;50.93;;;46.30;;
15629;SDS011;7914;50.842;0.166;2022-09-03T03:37:39;53.50;;;48.57;;
15629;SDS011;7914;50.842;0.166;2022-09-03T03:40:05;51.37;;;46.47;;
15629;SDS011;7914;50.842;0.166;2022-09-03T03:42:35;52.50;;;47.57;;
15629;SDS011;7914;50.842;0.166;2022-09-03T03:45:00;54.10;;;49.03;;
15629;SDS011;7914;50.842;0.166;2022-09-03T03:47:29;53.50;;;48.37;;
15629;SDS011;7914;50.842;0.166;2022-09-03T03:49:55;54.03;;;48.53;;
15629;SDS011;7914;50.842;0.166;2022-09-03T03:52:22;52.70;;;47.67;;
15629;SDS011;7914;50.842;0.166;2022-09-03T03:54:48;54.37;;;48.57;;
15629;SDS011;7914;50.842;0.166;2022-09-03T03:57:14;53.23;;;47.47;;
15629;SDS011;7914;50.842;0.166;2022-09-03T03:59:40;54.47;;;48.87;;
15629;SDS011;7914;50.842;0.166;2022-09-03T04:02:06;54.10;;;48.33;;
15629;SDS011;7914;50.842;0.166;2022-09-03T04:04:32;54.00;;;48.60;;
15629;SDS011;7914;50.842;0.166;2022-09-03T04:06:58;54.10;;;48.47;;
15629;SDS011;7914;50.842;0.166;2022-09-03T04:09:24;52.33;;;47.07;;
15629;SDS011;7914;50.842;0.166;2022-09-03T04:11:49;52.93;;;47.63;;
15629;SDS011;7914;50.842;0.166;2022-09-03T04:14:15;54.30;;;48.80;;
15629;SDS011;7914;50.842;0.166;2022-09-03T04:16:42;52.93;;;47.60;;
15629;SDS011;7914;50.842;0.166;2022-09-03T04:19:10;54.40;;;48.93;;
15629;SDS011;7914;50.842;0.166;2022-09-03T04:21:37;54.83;;;49.17;;
15629;SDS011;7914;50.842;0.166;2022-09-03T04:24:03;53.30;;;47.80;;
15629;SDS011;7914;50.842;0.166;2022-09-03T04:26:30;56.07;;;50.00;;
15629;SDS011;7914;50.842;0.166;2022-09-03T04:28:57;54.63;;;48.87;;
15629;SDS011;7914;50.842;0.166;2022-09-03T04:31:27;54.53;;;46.43;;
15629;SDS011;7914;50.842;0.166;2022-09-03T04:33:53;52.53;;;47.07;;
15629;SDS011;7914;50.842;0.166;2022-09-03T04:36:20;52.30;;;46.77;;
15629;SDS011;7914;50.842;0.166;2022-09-03T04:38:48;50.37;;;45.33;;
15629;SDS011;7914;50.842;0.166;2022-09-03T04:41:16;51.00;;;46.00;;
15629;SDS011;7914;50.842;0.166;2022-09-03T04:43:44;54.33;;;48.37;;
15629;SDS011;7914;50.842;0.166;2022-09-03T04:46:11;52.23;;;46.80;;
15629;SDS011;7914;50.842;0.166;2022-09-03T04:48:37;54.60;;;48.80;;
15629;SDS011;7914;50.842;0.166;2022-09-03T04:51:07;51.07;;;45.73;;
15629;SDS011;7914;50.842;0.166;2022-09-03T04:53:37;50.07;;;44.97;;
15629;SDS011;7914;50.842;0.166;2022-09-03T04:56:11;51.03;;;45.73;;
15629;SDS011;7914;50.842;0.166;2022-09-03T04:59:00;50.13;;;44.87;;
15629;SDS011;7914;50.842;0.166;2022-09-03T05:01:29;50.07;;;44.67;;
15629;SDS011;7914;50.842;0.166;2022-09-03T05:03:56;51.33;;;45.93;;
15629;SDS011;7914;50.842;0.166;2022-09-03T05:06:23;52.53;;;47.30;;
15629;SDS011;7914;50.842;0.166;2022-09-03T05:08:50;52.00;;;46.90;;
15629;SDS011;7914;50.842;0.166;2022-09-03T05:11:17;51.70;;;46.43;;
15629;SDS011;7914;50.842;0.166;2022-09-03T05:13:45;52.87;;;47.13;;
15629;SDS011;7914;50.842;0.166;2022-09-03T05:16:13;53.30;;;47.87;;
15629;SDS011;7914;50.842;0.166;2022-09-03T05:18:39;55.17;;;49.53;;
15629;SDS011;7914;50.842;0.166;2022-09-03T05:21:10;54.93;;;49.17;;
15629;SDS011;7914;50.842;0.166;2022-09-03T05:23:38;55.17;;;49.37;;
15629;SDS011;7914;50.842;0.166;2022-09-03T05:26:06;54.93;;;49.33;;
15629;SDS011;7914;50.842;0.166;2022-09-03T05:28:34;55.30;;;49.30;;
15629;SDS011;7914;50.842;0.166;2022-09-03T05:31:03;56.50;;;49.63;;
15629;SDS011;7914;50.842;0.166;2022-09-03T05:33:36;56.97;;;50.50;;
15629;SDS011;7914;50.842;0.166;2022-09-03T05:36:04;52.63;;;47.17;;
15629;SDS011;7914;50.842;0.166;2022-09-03T05:38:31;57.10;;;50.27;;
15629;SDS011;7914;50.842;0.166;2022-09-03T05:40:58;54.63;;;48.77;;
15629;SDS011;7914;50.842;0.166;2022-09-03T05:43:25;53.53;;;47.93;;
15629;SDS011;7914;50.842;0.166;2022-09-03T05:45:56;53.47;;;47.80;;
15629;SDS011;7914;50.842;0.166;2022-09-03T05:48:42;51.17;;;46.00;;
15629;SDS011;7914;50.842;0.166;2022-09-03T05:51:12;52.90;;;47.47;;
15629;SDS011;7914;50.842;0.166;2022-09-03T05:53:43;56.53;;;50.53;;
15629;SDS011;7914;50.842;0.166;2022-09-03T05:56:11;52.93;;;47.33;;
15629;SDS011;7914;50.842;0.166;2022-09-03T05:58:39;52.43;;;47.03;;
15629;SDS011;7914;50.842;0.166;2022-09-03T06:01:11;51.30;;;46.07;;
15629;SDS011;7914;50.842;0.166;2022-09-03T06:03:38;60.27;;;53.73;;
15629;SDS011;7914;50.842;0.166;2022-09-03T06:06:05;58.73;;;52.63;;
15629;SDS011;7914;50.842;0.166;2022-09-03T06:08:31;55.37;;;49.53;;
15629;SDS011;7914;50.842;0.166;2022-09-03T06:10:58;57.37;;;51.40;;
15629;SDS011;7914;50.842;0.166;2022-09-03T06:13:25;56.37;;;50.23;;
15629;SDS011;7914;50.842;0.166;2022-09-03T06:16:01;55.53;;;49.63;;
15629;SDS011;7914;50.842;0.166;2022-09-03T06:18:29;57.23;;;51.03;;
15629;SDS011;7914;50.842;0.166;2022-09-03T06:21:02;55.80;;;49.27;;
15629;SDS011;7914;50.842;0.166;2022-09-03T06:23:30;54.87;;;49.13;;
15629;SDS011;7914;50.842;0.166;2022-09-03T06:28:29;52.83;;;47.50;;
15629;SDS011;7914;50.842;0.166;2022-09-03T06:30:58;51.53;;;46.50;;
15629;SDS011;7914;50.842;0.166;2022-09-03T06:33:26;52.23;;;47.17;;
15629;SDS011;7914;50.842;0.166;2022-09-03T06:35:55;53.13;;;47.80;;
15629;SDS011;7914;50.842;0.166;2022-09-03T06:38:22;49.00;;;44.33;;
15629;SDS011;7914;50.842;0.166;2022-09-03T06:40:56;46.83;;;42.40;;
15629;SDS011;7914;50.842;0.166;2022-09-03T06:43:26;48.67;;;43.83;;
15629;SDS011;7914;50.842;0.166;2022-09-03T06:45:54;47.63;;;42.73;;
15629;SDS011;7914;50.842;0.166;2022-09-03T06:48:21;48.93;;;44.23;;
15629;SDS011;7914;50.842;0.166;2022-09-03T06:50:53;46.97;;;42.33;;
15629;SDS011;7914;50.842;0.166;2022-09-03T06:53:24;47.77;;;42.97;;
15629;SDS011;7914;50.842;0.166;2022-09-03T06:55:52;48.90;;;44.27;;
15629;SDS011;7914;50.842;0.166;2022-09-03T06:58:22;50.73;;;45.73;;
15629;SDS011;7914;50.842;0.166;2022-09-03T07:00:48;49.37;;;44.57;;
15629;SDS011;7914;50.842;0.166;2022-09-03T07:03:17;50.30;;;45.60;;
15629;SDS011;7914;50.842;0.166;2022-09-03T07:05:43;49.90;;;45.30;;
15629;SDS011;7914;50.842;0.166;2022-09-03T07:08:10;53.70;;;48.40;;
15629;SDS011;7914;50.842;0.166;2022-09-03T07:10:35;54.60;;;49.20;;
15629;SDS011;7914;50.842;0.166;2022-09-03T07:13:02;49.27;;;44.50;;
15629;SDS011;7914;50.842;0.166;2022-09-03T07:15:31;49.27;;;44.67;;
15629;SDS011;7914;50.842;0.166;2022-09-03T07:17:57;53.93;;;48.93;;
15629;SDS011;7914;50.842;0.166;2022-09-03T07:20:23;52.33;;;47.53;;
15629;SDS011;7914;50.842;0.166;2022-09-03T07:22:49;52.57;;;47.57;;
15629;SDS011;7914;50.842;0.166;2022-09-03T07:25:18;49.37;;;45.03;;
15629;SDS011;7914;50.842;0.166;2022-09-03T07:27:43;49.17;;;44.33;;
15629;SDS011;7914;50.842;0.166;2022-09-03T07:30:09;50.40;;;45.60;;
15629;SDS011;7914;50.842;0.166;2022-09-03T07:32:35;48.43;;;44.00;;
15629;SDS011;7914;50.842;0.166;2022-09-03T07:35:05;49.90;;;45.40;;
15629;SDS011;7914;50.842;0.166;2022-09-03T07:37:31;48.93;;;44.63;;
15629;SDS011;7914;50.842;0.166;2022-09-03T07:39:57;50.70;;;45.87;;
15629;SDS011;7914;50.842;0.166;2022-09-03T07:42:23;46.43;;;42.23;;
15629;SDS011;7914;50.842;0.166;2022-09-03T07:44:51;46.87;;;42.43;;
15629;SDS011;7914;50.842;0.166;2022-09-03T07:47:16;44.60;;;40.67;;
15629;SDS011;7914;50.842;0.166;2022-09-03T07:49:44;43.40;;;39.20;;
15629;SDS011;7914;50.842;0.166;2022-09-03T07:52:09;43.10;;;39.03;;
15629;SDS011;7914;50.842;0.166;2022-09-03T07:54:35;44.35;;;40.38;;
15629;SDS011;7914;50.842;0.166;2022-09-03T07:57:00;42.20;;;37.85;;
15629;SDS011;7914;50.842;0.166;2022-09-03T07:59:26;40.70;;;36.90;;
15629;SDS011;7914;50.842;0.166;2022-09-03T08:01:52;37.92;;;34.38;;
15629;SDS011;7914;50.842;0.166;2022-09-03T08:04:18;38.33;;;34.85;;
15629;SDS011;7914;50.842;0.166;2022-09-03T08:06:45;39.95;;;36.08;;
15629;SDS011;7914;50.842;0.166;2022-09-03T08:09:12;40.60;;;36.95;;
15629;SDS011;7914;50.842;0.166;2022-09-03T08:11:38;41.80;;;38.15;;
15629;SDS011;7914;50.842;0.166;2022-09-03T08:14:08;41.67;;;37.80;;
15629;SDS011;7914;50.842;0.166;2022-09-03T08:16:37;42.87;;;38.53;;
15629;SDS011;7914;50.842;0.166;2022-09-03T08:19:04;43.27;;;39.20;;
15629;SDS011;7914;50.842;0.166;2022-09-03T08:21:30;39.83;;;36.20;;
15629;SDS011;7914;50.842;0.166;2022-09-03T08:23:56;37.07;;;33.57;;
15629;SDS011;7914;50.842;0.166;2022-09-03T08:26:32;31.87;;;29.07;;
15629;SDS011;7914;50.842;0.166;2022-09-03T08:28:59;24.60;;;22.40;;
15629;SDS011;7914;50.842;0.166;2022-09-03T08:31:26;22.45;;;20.27;;
15629;SDS011;7914;50.842;0.166;2022-09-03T08:33:53;21.05;;;19.25;;
15629;SDS011;7914;50.842;0.166;2022-09-03T08:38:51;20.10;;;18.20;;
15629;SDS011;7914;50.842;0.166;2022-09-03T08:47:12;16.50;;;14.98;;
15629;SDS011;7914;50.842;0.166;2022-09-03T08:49:20;14.65;;;13.25;;
15629;SDS011;7914;50.842;0.166;2022-09-03T08:51:50;14.70;;;13.50;;
15629;SDS011;7914;50.842;0.166;2022-09-03T08:54:20;14.88;;;13.50;;
15629;SDS011;7914;50.842;0.166;2022-09-03T08:56:51;13.82;;;12.63;;
15629;SDS011;7914;50.842;0.166;2022-09-03T08:59:18;14.60;;;13.20;;
15629;SDS011;7914;50.842;0.166;2022-09-03T09:07:20;10.60;;;9.70;;
15629;SDS011;7914;50.842;0.166;2022-09-03T09:16:05;11.50;;;10.43;;
15629;SDS011;7914;50.842;0.166;2022-09-03T09:18:42;7.82;;;7.10;;
15629;SDS011;7914;50.842;0.166;2022-09-03T09:21:38;9.27;;;8.48;;
15629;SDS011;7914;50.842;0.166;2022-09-03T09:24:12;7.95;;;7.25;;
15629;SDS011;7914;50.842;0.166;2022-09-03T09:26:57;8.07;;;7.28;;
15629;SDS011;7914;50.842;0.166;2022-09-03T09:29:29;8.20;;;7.50;;
15629;SDS011;7914;50.842;0.166;2022-09-03T09:31:57;5.65;;;5.15;;
15629;SDS011;7914;50.842;0.166;2022-09-03T09:34:23;7.57;;;5.43;;
15629;SDS011;7914;50.842;0.166;2022-09-03T09:36:53;6.38;;;5.78;;
15629;SDS011;7914;50.842;0.166;2022-09-03T09:39:20;6.70;;;5.70;;
15629;SDS011;7914;50.842;0.166;2022-09-03T09:42:00;4.80;;;4.38;;
15629;SDS011;7914;50.842;0.166;2022-09-03T09:44:37;7.13;;;6.43;;
15629;SDS011;7914;50.842;0.166;2022-09-03T09:47:09;7.78;;;7.10;;
15629;SDS011;7914;50.842;0.166;2022-09-03T09:52:13;4.95;;;4.22;;
15629;SDS011;7914;50.842;0.166;2022-09-03T09:54:41;6.82;;;6.22;;
15629;SDS011;7914;50.842;0.166;2022-09-03T09:57:17;5.95;;;5.45;;
15629;SDS011;7914;50.842;0.166;2022-09-03T09:59:47;5.70;;;5.18;;
15629;SDS011;7914;50.842;0.166;2022-09-03T10:02:34;4.60;;;4.20;;
15629;SDS011;7914;50.842;0.166;2022-09-03T10:05:18;5.28;;;4.88;;
15629;SDS011;7914;50.842;0.166;2022-09-03T10:08:05;7.63;;;6.93;;
15629;SDS011;7914;50.842;0.166;2022-09-03T10:10:47;6.35;;;5.75;;
15629;SDS011;7914;50.842;0.166;2022-09-03T10:13:21;5.57;;;5.13;;
15629;SDS011;7914;50.842;0.166;2022-09-03T10:15:55;4.57;;;4.18;;
15629;SDS011;7914;50.842;0.166;2022-09-03T10:18:45;3.72;;;3.30;;
15629;SDS011;7914;50.842;0.166;2022-09-03T10:26:23;3.08;;;2.88;;
15629;SDS011;7914;50.842;0.166;2022-09-03T10:28:55;4.05;;;3.03;;
15629;SDS011;7914;50.842;0.166;2022-09-03T10:34:31;3.78;;;3.47;;
15629;SDS011;7914;50.842;0.166;2022-09-03T10:48:02;5.13;;;4.72;;
15629;SDS011;7914;50.842;0.166;2022-09-03T10:50:41;6.10;;;5.50;;
15629;SDS011;7914;50.842;0.166;2022-09-03T10:53:15;8.05;;;6.00;;
15629;SDS011;7914;50.842;0.166;2022-09-03T10:56:06;11.32;;;6.00;;
15629;SDS011;7914;50.842;0.166;2022-09-03T10:58:50;6.25;;;5.65;;
15629;SDS011;7914;50.842;0.166;2022-09-03T11:06:42;5.22;;;4.80;;
15629;SDS011;7914;50.842;0.166;2022-09-03T11:09:20;7.38;;;6.72;;
15629;SDS011;7914;50.842;0.166;2022-09-03T11:11:57;9.40;;;8.50;;
15629;SDS011;7914;50.842;0.166;2022-09-03T11:14:29;9.45;;;8.52;;
15629;SDS011;7914;50.842;0.166;2022-09-03T11:17:10;9.68;;;8.77;;
15629;SDS011;7914;50.842;0.166;2022-09-03T11:19:54;11.25;;;10.25;;
15629;SDS011;7914;50.842;0.166;2022-09-03T11:22:22;11.40;;;10.50;;
15629;SDS011;7914;50.842;0.166;2022-09-03T11:24:51;11.45;;;10.55;;
15629;SDS011;7914;50.842;0.166;2022-09-03T11:30:07;15.07;;;13.68;;
15629;SDS011;7914;50.842;0.166;2022-09-03T11:35:14;11.07;;;10.18;;
15629;SDS011;7914;50.842;0.166;2022-09-03T11:38:00;12.25;;;11.05;;
15629;SDS011;7914;50.842;0.166;2022-09-03T11:40:36;14.32;;;12.93;;
15629;SDS011;7914;50.842;0.166;2022-09-03T11:43:23;12.13;;;10.90;;
15629;SDS011;7914;50.842;0.166;2022-09-03T11:46:02;10.50;;;9.60;;
15629;SDS011;7914;50.842;0.166;2022-09-03T11:48:36;11.18;;;10.05;;
15629;SDS011;7914;50.842;0.166;2022-09-03T11:51:17;11.73;;;10.55;;
15629;SDS011;7914;50.842;0.166;2022-09-03T11:56:23;13.23;;;12.13;;
15629;SDS011;7914;50.842;0.166;2022-09-03T12:04:17;12.20;;;11.07;;
15629;SDS011;7914;50.842;0.166;2022-09-03T12:06:59;15.07;;;11.10;;
15629;SDS011;7914;50.842;0.166;2022-09-03T12:15:17;12.05;;;10.88;;
15629;SDS011;7914;50.842;0.166;2022-09-03T12:18:03;14.15;;;12.73;;
15629;SDS011;7914;50.842;0.166;2022-09-03T12:20:58;15.65;;;14.25;;
15629;SDS011;7914;50.842;0.166;2022-09-03T12:26:09;18.00;;;16.30;;
15629;SDS011;7914;50.842;0.166;2022-09-03T12:28:39;20.05;;;18.23;;
15629;SDS011;7914;50.842;0.166;2022-09-03T12:31:08;13.57;;;12.38;;
15629;SDS011;7914;50.842;0.166;2022-09-03T12:33:53;8.45;;;7.65;;
15629;SDS011;7914;50.842;0.166;2022-09-03T12:36:22;7.90;;;7.20;;
15629;SDS011;7914;50.842;0.166;2022-09-03T12:38:48;9.82;;;8.95;;
15629;SDS011;7914;50.842;0.166;2022-09-03T12:41:29;10.38;;;9.27;;
15629;SDS011;7914;50.842;0.166;2022-09-03T12:43:57;9.05;;;8.25;;
15629;SDS011;7914;50.842;0.166;2022-09-03T12:46:26;8.95;;;8.10;;
15629;SDS011;7914;50.842;0.166;2022-09-03T12:49:00;8.23;;;7.47;;
15629;SDS011;7914;50.842;0.166;2022-09-03T12:51:38;6.47;;;5.80;;
15629;SDS011;7914;50.842;0.166;2022-09-03T12:54:07;6.38;;;5.55;;
15629;SDS011;7914;50.842;0.166;2022-09-03T12:56:40;5.97;;;5.47;;
15629;SDS011;7914;50.842;0.166;2022-09-03T12:59:10;6.18;;;5.55;;
15629;SDS011;7914;50.842;0.166;2022-09-03T13:01:43;6.65;;;5.60;;
15629;SDS011;7914;50.842;0.166;2022-09-03T13:04:22;5.53;;;5.07;;
15629;SDS011;7914;50.842;0.166;2022-09-03T13:07:05;6.18;;;5.18;;
15629;SDS011;7914;50.842;0.166;2022-09-03T13:09:38;5.45;;;5.05;;
15629;SDS011;7914;50.842;0.166;2022-09-03T13:12:06;6.18;;;5.57;;
15629;SDS011;7914;50.842;0.166;2022-09-03T13:14:45;4.93;;;4.53;;
15629;SDS011;7914;50.842;0.166;2022-09-03T13:17:55;6.07;;;5.55;;
15629;SDS011;7914;50.842;0.166;2022-09-03T13:26:20;7.97;;;5.63;;
15629;SDS011;7914;50.842;0.166;2022-09-03T13:28:34;6.00;;;5.40;;
15629;SDS011;7914;50.842;0.166;2022-09-03T13:31:23;6.65;;;5.90;;
15629;SDS011;7914;50.842;0.166;2022-09-03T13:34:02;6.93;;;5.50;;
15629;SDS011;7914;50.842;0.166;2022-09-03T13:39:48;8.15;;;6.05;;
15629;SDS011;7914;50.842;0.166;2022-09-03T13:42:21;6.70;;;6.10;;
15629;SDS011;7914;50.842;0.166;2022-09-03T13:45:04;7.10;;;6.40;;
15629;SDS011;7914;50.842;0.166;2022-09-03T13:48:00;6.82;;;6.07;;
15629;SDS011;7914;50.842;0.166;2022-09-03T13:51:12;8.50;;;6.10;;
15629;SDS011;7914;50.842;0.166;2022-09-03T13:57:00;6.95;;;6.25;;
15629;SDS011;7914;50.842;0.166;2022-09-03T14:05:00;9.70;;;6.80;;
15629;SDS011;7914;50.842;0.166;2022-09-03T14:07:40;7.97;;;7.15;;
15629;SDS011;7914;50.842;0.166;2022-09-03T14:16:23;10.65;;;6.78;;
15629;SDS011;7914;50.842;0.166;2022-09-03T14:19:00;7.32;;;6.63;;
15629;SDS011;7914;50.842;0.166;2022-09-03T14:21:35;7.97;;;7.15;;
15629;SDS011;7914;50.842;0.166;2022-09-03T14:24:23;11.25;;;8.77;;
15629;SDS011;7914;50.842;0.166;2022-09-03T14:27:09;10.00;;;8.55;;
15629;SDS011;7914;50.842;0.166;2022-09-03T14:29:35;10.48;;;7.50;;
15629;SDS011;7914;50.842;0.166;2022-09-03T14:40:15;8.90;;;8.07;;
15629;SDS011;7914;50.842;0.166;2022-09-03T14:43:01;8.80;;;7.78;;
15629;SDS011;7914;50.842;0.166;2022-09-03T14:48:29;8.70;;;7.90;;
15629;SDS011;7914;50.842;0.166;2022-09-03T15:08:05;9.88;;;7.63;;
15629;SDS011;7914;50.842;0.166;2022-09-03T15:12:48;8.35;;;7.10;;
15629;SDS011;7914;50.842;0.166;2022-09-03T15:20:51;9.10;;;6.07;;
15629;SDS011;7914;50.842;0.166;2022-09-03T15:34:21;8.32;;;6.60;;
15629;SDS011;7914;50.842;0.166;2022-09-03T15:36:59;10.32;;;7.10;;
15629;SDS011;7914;50.842;0.166;2022-09-03T15:39:34;10.05;;;7.15;;
15629;SDS011;7914;50.842;0.166;2022-09-03T15:42:09;7.97;;;7.10;;
15629;SDS011;7914;50.842;0.166;2022-09-03T15:44:49;11.15;;;7.80;;
15629;SDS011;7914;50.842;0.166;2022-09-03T15:50:28;9.85;;;7.97;;
15629;SDS011;7914;50.842;0.166;2022-09-03T15:58:56;10.15;;;7.63;;
15629;SDS011;7914;50.842;0.166;2022-09-03T16:01:35;10.88;;;7.38;;
15629;SDS011;7914;50.842;0.166;2022-09-03T16:09:26;13.05;;;7.88;;
15629;SDS011;7914;50.842;0.166;2022-09-03T16:12:16;12.45;;;7.68;;
15629;SDS011;7914;50.842;0.166;2022-09-03T16:14:54;9.50;;;7.47;;
15629;SDS011;7914;50.842;0.166;2022-09-03T16:23:24;9.90;;;5.93;;
15629;SDS011;7914;50.842;0.166;2022-09-03T16:25:56;7.40;;;5.88;;
15629;SDS011;7914;50.842;0.166;2022-09-03T16:28:35;6.78;;;5.65;;
15629;SDS011;7914;50.842;0.166;2022-09-03T16:31:34;8.30;;;6.00;;
15629;SDS011;7914;50.842;0.166;2022-09-03T16:37:03;9.68;;;6.20;;
15629;SDS011;7914;50.842;0.166;2022-09-03T16:43:06;9.70;;;6.07;;
15629;SDS011;7914;50.842;0.166;2022-09-03T16:45:39;9.25;;;5.75;;
15629;SDS011;7914;50.842;0.166;2022-09-03T16:48:25;8.27;;;5.68;;
15629;SDS011;7914;50.842;0.166;2022-09-03T17:02:21;10.32;;;6.85;;
15629;SDS011;7914;50.842;0.166;2022-09-03T17:14:25;11.10;;;7.13;;
15629;SDS011;7914;50.842;0.166;2022-09-03T17:25:04;14.55;;;8.38;;
15629;SDS011;7914;50.842;0.166;2022-09-03T17:33:37;9.20;;;7.75;;
15629;SDS011;7914;50.842;0.166;2022-09-03T17:36:11;10.55;;;8.05;;
15629;SDS011;7914;50.842;0.166;2022-09-03T17:44:03;12.70;;;8.70;;
15629;SDS011;7914;50.842;0.166;2022-09-03T17:46:36;13.38;;;8.10;;
15629;SDS011;7914;50.842;0.166;2022-09-03T17:49:26;12.32;;;8.38;;
15629;SDS011;7914;50.842;0.166;2022-09-03T17:52:02;11.95;;;8.57;;
15629;SDS011;7914;50.842;0.166;2022-09-03T17:54:35;13.00;;;8.50;;
15629;SDS011;7914;50.842;0.166;2022-09-03T17:57:12;14.05;;;8.85;;
15629;SDS011;7914;50.842;0.166;2022-09-03T17:59:41;13.87;;;9.17;;
15629;SDS011;7914;50.842;0.166;2022-09-03T18:02:53;15.90;;;9.73;;
15629;SDS011;7914;50.842;0.166;2022-09-03T18:05:29;12.67;;;8.90;;
15629;SDS011;7914;50.842;0.166;2022-09-03T18:18:30;13.30;;;10.10;;
15629;SDS011;7914;50.842;0.166;2022-09-03T18:20:59;12.27;;;11.03;;
15629;SDS011;7914;50.842;0.166;2022-09-03T18:24:00;12.70;;;10.43;;
15629;SDS011;7914;50.842;0.166;2022-09-03T18:27:00;13.30;;;10.43;;
15629;SDS011;7914;50.842;0.166;2022-09-03T18:32:48;12.70;;;10.43;;
15629;SDS011;7914;50.842;0.166;2022-09-03T18:35:33;14.20;;;11.20;;
15629;SDS011;7914;50.842;0.166;2022-09-03T18:38:23;13.47;;;10.63;;
15629;SDS011;7914;50.842;0.166;2022-09-03T18:44:38;15.13;;;10.77;;
15629;SDS011;7914;50.842;0.166;2022-09-03T18:50:36;14.43;;;10.37;;
15629;SDS011;7914;50.842;0.166;2022-09-03T18:56:46;13.87;;;10.63;;
15629;SDS011;7914;50.842;0.166;2022-09-03T18:59:44;14.13;;;10.67;;
15629;SDS011;7914;50.842;0.166;2022-09-03T19:23:44;15.57;;;11.53;;
15629;SDS011;7914;50.842;0.166;2022-09-03T19:39:29;13.27;;;11.23;;
15629;SDS011;7914;50.842;0.166;2022-09-03T19:42:32;11.50;;;9.67;;
15629;SDS011;7914;50.842;0.166;2022-09-03T19:51:39;14.40;;;10.67;;
15629;SDS011;7914;50.842;0.166;2022-09-03T19:54:29;16.30;;;10.87;;
15629;SDS011;7914;50.842;0.166;2022-09-03T19:57:14;17.03;;;11.50;;
15629;SDS011;7914;50.842;0.166;2022-09-03T20:00:02;15.57;;;11.57;;
15629;SDS011;7914;50.842;0.166;2022-09-03T20:02:48;12.50;;;11.30;;
15629;SDS011;7914;50.842;0.166;2022-09-03T20:05:32;16.57;;;11.67;;
15629;SDS011;7914;50.842;0.166;2022-09-03T20:08:18;15.73;;;11.93;;
15629;SDS011;7914;50.842;0.166;2022-09-03T20:11:05;16.67;;;12.13;;
15629;SDS011;7914;50.842;0.166;2022-09-03T20:13:45;17.60;;;13.80;;
15629;SDS011;7914;50.842;0.166;2022-09-03T20:30:10;17.77;;;15.87;;
15629;SDS011;7914;50.842;0.166;2022-09-03T20:38:13;19.10;;;16.77;;
15629;SDS011;7914;50.842;0.166;2022-09-03T20:52:36;20.87;;;15.00;;
15629;SDS011;7914;50.842;0.166;2022-09-03T20:55:28;16.07;;;14.00;;
15629;SDS011;7914;50.842;0.166;2022-09-03T21:00:54;16.43;;;14.47;;
15629;SDS011;7914;50.842;0.166;2022-09-03T21:03:44;21.60;;;14.90;;
15629;SDS011;7914;50.842;0.166;2022-09-03T21:06:39;18.73;;;15.03;;
15629;SDS011;7914;50.842;0.166;2022-09-03T21:25:12;20.30;;;17.97;;
15629;SDS011;7914;50.842;0.166;2022-09-03T21:27:46;21.20;;;18.97;;
15629;SDS011;7914;50.842;0.166;2022-09-03T21:30:16;22.17;;;18.87;;
15629;SDS011;7914;50.842;0.166;2022-09-03T21:32:54;22.73;;;20.37;;
15629;SDS011;7914;50.842;0.166;2022-09-03T21:35:31;22.73;;;20.00;;
15629;SDS011;7914;50.842;0.166;2022-09-03T21:38:04;20.80;;;18.63;;
15629;SDS011;7914;50.842;0.166;2022-09-03T21:40:33;23.83;;;21.13;;
15629;SDS011;7914;50.842;0.166;2022-09-03T21:43:08;23.07;;;20.20;;
15629;SDS011;7914;50.842;0.166;2022-09-03T21:45:52;23.63;;;21.20;;
15629;SDS011;7914;50.842;0.166;2022-09-03T21:48:37;27.23;;;22.17;;
15629;SDS011;7914;50.842;0.166;2022-09-03T21:51:24;28.43;;;24.17;;